createdAt,value
2018-10-17T00:00:06.723Z,127.87
2018-10-17T00:02:33.989Z,131.97
2018-10-17T00:05:01.327Z,133.20
2018-10-17T00:07:28.647Z,131.90
2018-10-17T00:10:02.706Z,122.03
2018-10-17T00:12:30.058Z,121.33
2018-10-17T00:14:57.310Z,133.77
2018-10-17T00:17:24.547Z,108.50
2018-10-17T00:19:52.012Z,118.10
2018-10-17T00:22:19.244Z,112.20
2018-10-17T00:24:46.507Z,135.33
2018-10-17T00:27:13.866Z,129.30
2018-10-17T00:29:41.923Z,116.67
2018-10-17T00:32:09.154Z,133.33
2018-10-17T00:34:43.351Z,115.70
2018-10-17T00:37:10.733Z,140.70
2018-10-17T00:39:37.843Z,134.33
2018-10-17T00:42:05.199Z,118.67
2018-10-17T00:44:32.466Z,115.60
2018-10-17T00:46:59.933Z,120.10
2018-10-17T00:49:27.168Z,116.67
2018-10-17T00:51:54.380Z,114.07
2018-10-17T00:54:21.613Z,113.27
2018-10-17T00:56:48.866Z,116.57
2018-10-17T00:59:16.202Z,121.80
2018-10-17T01:01:43.496Z,106.47
2018-10-17T01:04:10.917Z,123.93
2018-10-17T01:06:38.691Z,107.10
2018-10-17T01:09:08.398Z,92.07
2018-10-17T01:11:36.521Z,101.23
2018-10-17T01:14:04.143Z,114.00
2018-10-17T01:16:31.387Z,91.87
2018-10-17T01:18:58.959Z,92.53
2018-10-17T01:21:26.201Z,115.77
2018-10-17T01:23:53.483Z,107.83
2018-10-17T01:26:20.899Z,116.70
2018-10-17T01:28:48.168Z,120.03
2018-10-17T01:31:15.521Z,93.03
2018-10-17T01:33:42.852Z,100.40
2018-10-17T01:36:10.070Z,110.97
2018-10-17T01:38:37.321Z,118.97
2018-10-17T01:41:04.745Z,132.00
2018-10-17T01:43:31.958Z,119.07
2018-10-17T01:45:59.448Z,110.00
2018-10-17T01:48:27.110Z,123.40
2018-10-17T01:50:54.321Z,147.70
2018-10-17T01:53:21.560Z,163.63
2018-10-17T01:55:50.534Z,142.67
2018-10-17T01:58:17.742Z,130.17
2018-10-17T02:00:44.943Z,142.17
2018-10-17T02:03:12.299Z,178.00
2018-10-17T02:05:39.544Z,176.23
2018-10-17T02:08:06.775Z,196.90
2018-10-17T02:10:34.233Z,150.00
2018-10-17T02:13:01.550Z,132.30
2018-10-17T02:15:28.742Z,160.87
2018-10-17T02:17:56.010Z,148.30
2018-10-17T02:20:23.267Z,138.57
2018-10-17T02:22:50.474Z,150.30
2018-10-17T02:25:17.766Z,169.93
2018-10-17T02:27:45.019Z,164.17
2018-10-17T02:30:12.232Z,167.57
2018-10-17T02:32:39.607Z,158.33
2018-10-17T02:35:12.628Z,128.43
2018-10-17T02:37:39.971Z,126.73
2018-10-17T02:40:07.260Z,173.37
2018-10-17T02:42:34.500Z,156.00
2018-10-17T02:45:01.784Z,154.67
2018-10-17T02:47:29.103Z,211.87
2018-10-17T02:49:56.364Z,248.63
2018-10-17T02:52:23.715Z,261.43
2018-10-17T02:54:51.027Z,279.67
2018-10-17T02:57:18.223Z,303.17
2018-10-17T02:59:45.552Z,302.07
2018-10-17T03:02:12.799Z,284.13
2018-10-17T03:04:40.051Z,300.93
2018-10-17T03:07:07.536Z,277.50
2018-10-17T03:09:34.695Z,278.47
2018-10-17T03:12:01.956Z,320.00
2018-10-17T03:14:29.366Z,303.70
2018-10-17T03:16:56.634Z,296.37
2018-10-17T03:19:23.884Z,295.10
2018-10-17T03:21:51.284Z,329.37
2018-10-17T03:24:18.569Z,317.23
2018-10-17T03:26:45.827Z,272.17
2018-10-17T03:29:13.292Z,274.23
2018-10-17T03:31:40.477Z,333.30
2018-10-17T03:34:07.760Z,369.97
2018-10-17T03:36:35.128Z,390.73
2018-10-17T03:39:02.426Z,391.93
2018-10-17T03:41:29.652Z,322.30
2018-10-17T03:43:56.998Z,390.57
2018-10-17T03:46:24.221Z,405.03
2018-10-17T03:48:51.441Z,391.93
2018-10-17T03:51:18.851Z,473.43
2018-10-17T03:53:46.064Z,470.83
2018-10-17T03:56:13.304Z,515.97
2018-10-17T03:58:40.713Z,458.37
2018-10-17T04:01:07.985Z,488.90
2018-10-17T04:03:35.413Z,539.83
2018-10-17T04:06:02.768Z,516.90
2018-10-17T04:08:30.012Z,600.63
2018-10-17T04:10:57.306Z,592.77
2018-10-17T04:13:24.567Z,530.03
2018-10-17T04:15:51.801Z,531.50
2018-10-17T04:18:19.103Z,604.60
2018-10-17T04:20:46.547Z,594.10
2018-10-17T04:23:13.784Z,569.60
2018-10-17T04:25:41.229Z,555.93
2018-10-17T04:28:08.587Z,533.20
2018-10-17T04:30:35.848Z,477.67
2018-10-17T04:33:03.120Z,467.27
2018-10-17T04:35:30.552Z,485.23
2018-10-17T04:37:57.846Z,444.93
2018-10-17T04:40:25.095Z,375.33
2018-10-17T04:42:52.439Z,271.37
2018-10-17T04:45:19.671Z,238.53
2018-10-17T04:47:47.003Z,231.50
2018-10-17T04:50:14.258Z,226.77
2018-10-17T04:52:41.508Z,219.73
2018-10-17T04:55:10.101Z,256.37
2018-10-17T04:57:37.382Z,260.73
2018-10-17T05:00:06.760Z,293.47
2018-10-17T05:02:34.027Z,275.87
2018-10-17T05:05:01.558Z,250.07
2018-10-17T05:07:28.768Z,264.07
2018-10-17T05:09:56.003Z,292.77
2018-10-17T05:12:23.377Z,316.63
2018-10-17T05:14:50.606Z,355.40
2018-10-17T05:17:17.823Z,361.27
2018-10-17T05:19:45.093Z,321.07
2018-10-17T05:22:12.344Z,256.30
2018-10-17T05:24:39.567Z,261.47
2018-10-17T05:27:06.941Z,294.97
2018-10-17T05:29:34.249Z,235.27
2018-10-17T05:32:01.455Z,286.13
2018-10-17T05:34:28.808Z,317.47
2018-10-17T05:36:56.138Z,377.03
2018-10-17T05:39:23.351Z,416.53
2018-10-17T05:41:50.729Z,352.37
2018-10-17T05:44:18.006Z,421.27
2018-10-17T05:46:45.316Z,375.50
2018-10-17T05:49:12.636Z,342.37
2018-10-17T05:51:39.850Z,376.60
2018-10-17T05:54:07.106Z,314.30
2018-10-17T05:56:34.458Z,357.40
2018-10-17T05:59:01.915Z,427.97
2018-10-17T06:01:29.208Z,419.03
2018-10-17T06:03:56.541Z,405.50
2018-10-17T06:06:23.775Z,380.90
2018-10-17T06:08:51.002Z,403.13
2018-10-17T06:11:18.360Z,341.60
2018-10-17T06:13:45.660Z,360.07
2018-10-17T06:16:13.122Z,448.60
2018-10-17T06:18:40.484Z,455.20
2018-10-17T06:21:07.719Z,413.67
2018-10-17T06:23:34.951Z,353.80
2018-10-17T06:26:02.271Z,411.30
2018-10-17T06:28:29.596Z,442.67
2018-10-17T06:30:56.822Z,342.57
2018-10-17T06:33:24.176Z,424.80
2018-10-17T06:35:51.399Z,353.13
2018-10-17T06:38:18.621Z,361.17
2018-10-17T06:40:45.971Z,290.57
2018-10-17T06:43:13.272Z,254.27
2018-10-17T06:45:40.473Z,256.80
2018-10-17T06:48:07.822Z,256.57
2018-10-17T06:50:35.152Z,294.27
2018-10-17T06:53:02.694Z,291.00
2018-10-17T06:55:30.008Z,364.60
2018-10-17T06:57:57.256Z,285.13
2018-10-17T07:00:24.487Z,304.30
2018-10-17T07:02:51.831Z,278.47
2018-10-17T07:05:19.074Z,237.70
2018-10-17T07:07:46.328Z,220.50
2018-10-17T07:10:13.678Z,221.23
2018-10-17T07:12:40.938Z,169.67
2018-10-17T07:15:08.237Z,204.07
2018-10-17T07:17:36.009Z,266.03
2018-10-17T07:20:03.920Z,333.03
2018-10-17T07:22:31.184Z,240.30
2018-10-17T07:24:58.939Z,228.20
2018-10-17T07:27:26.160Z,303.23
2018-10-17T07:29:53.529Z,228.53
2018-10-17T07:32:20.734Z,229.07
2018-10-17T07:34:48.084Z,213.70
2018-10-17T07:37:15.348Z,238.73
2018-10-17T07:39:42.734Z,208.23
2018-10-17T07:42:09.981Z,225.90
2018-10-17T07:44:37.244Z,236.13
2018-10-17T07:47:05.074Z,228.23
2018-10-17T07:49:32.329Z,181.27
2018-10-17T07:51:59.568Z,199.93
2018-10-17T07:54:26.911Z,185.20
2018-10-17T07:56:54.189Z,161.10
2018-10-17T07:59:21.440Z,153.43
2018-10-17T08:01:48.851Z,147.87
2018-10-17T08:04:16.061Z,159.13
2018-10-17T08:06:43.318Z,134.27
2018-10-17T08:09:11.515Z,129.10
2018-10-17T08:11:39.879Z,135.13
2018-10-17T08:14:07.312Z,124.73
2018-10-17T08:16:34.662Z,127.97
2018-10-17T08:19:01.971Z,118.13
2018-10-17T08:21:29.342Z,111.53
2018-10-17T08:23:56.777Z,108.13
2018-10-17T08:26:23.896Z,116.30
2018-10-17T08:28:51.124Z,111.03
2018-10-17T08:31:18.479Z,107.27
2018-10-17T08:33:45.702Z,117.17
2018-10-17T08:36:13.138Z,108.80
2018-10-17T08:38:40.448Z,104.10
2018-10-17T08:41:07.691Z,111.47
2018-10-17T08:43:41.870Z,104.70
2018-10-17T08:46:09.160Z,103.77
2018-10-17T08:48:36.358Z,103.27
2018-10-17T08:51:03.825Z,92.07
2018-10-17T08:53:31.011Z,96.13
2018-10-17T08:55:58.283Z,102.13
2018-10-17T08:58:25.624Z,93.30
2018-10-17T09:00:52.855Z,96.63
2018-10-17T09:03:20.182Z,88.30
2018-10-17T09:05:47.585Z,81.83
2018-10-17T09:08:14.841Z,83.70
2018-10-17T09:10:42.111Z,75.57
2018-10-17T09:13:10.453Z,82.30
2018-10-17T09:15:38.543Z,79.23
2018-10-17T09:18:05.131Z,84.93
2018-10-17T09:20:32.838Z,78.43
2018-10-17T09:22:59.718Z,80.00
2018-10-17T09:25:27.006Z,73.33
2018-10-17T09:27:54.405Z,70.87
2018-10-17T09:30:21.696Z,73.37
2018-10-17T09:32:49.167Z,71.03
2018-10-17T09:35:16.623Z,76.90
2018-10-17T09:37:43.751Z,78.80
2018-10-17T09:40:11.283Z,70.53
2018-10-17T09:42:39.159Z,70.27
2018-10-17T09:45:06.933Z,73.90
2018-10-17T09:47:34.191Z,72.37
2018-10-17T09:50:01.481Z,66.20
2018-10-17T09:52:28.690Z,78.13
2018-10-17T09:54:55.911Z,66.90
2018-10-17T09:57:23.335Z,64.90
2018-10-17T09:59:50.563Z,65.97
2018-10-17T10:02:17.863Z,67.50
2018-10-17T10:04:45.208Z,60.40
2018-10-17T10:07:12.459Z,64.80
2018-10-17T10:09:39.690Z,63.30
2018-10-17T10:12:07.121Z,62.03
2018-10-17T10:14:34.955Z,58.63
2018-10-17T10:17:02.380Z,63.47
2018-10-17T10:19:29.663Z,62.13
2018-10-17T10:21:56.908Z,66.27
2018-10-17T10:24:24.128Z,64.17
2018-10-17T10:26:51.470Z,59.77
2018-10-17T10:29:18.695Z,59.77
2018-10-17T10:31:45.983Z,60.47
2018-10-17T10:34:13.359Z,59.20
2018-10-17T10:36:40.574Z,54.93
2018-10-17T10:39:09.791Z,59.27
2018-10-17T10:41:37.071Z,56.90
2018-10-17T10:44:04.469Z,56.73
2018-10-17T10:46:31.643Z,54.53
2018-10-17T10:48:58.911Z,56.40
2018-10-17T10:51:26.217Z,59.80
2018-10-17T10:53:53.441Z,48.87
2018-10-17T10:56:21.569Z,51.03
2018-10-17T10:58:48.918Z,54.13
2018-10-17T11:01:16.063Z,49.03
2018-10-17T11:03:43.352Z,51.10
2018-10-17T11:06:10.591Z,48.47
2018-10-17T11:08:37.808Z,48.00
2018-10-17T11:11:05.581Z,45.20
2018-10-17T11:13:32.840Z,47.70
2018-10-17T11:16:00.084Z,44.20
2018-10-17T11:18:27.476Z,42.13
2018-10-17T11:20:54.720Z,43.00
2018-10-17T11:23:21.988Z,40.33
2018-10-17T11:25:49.274Z,37.93
2018-10-17T11:28:16.507Z,37.67
2018-10-17T11:30:43.767Z,35.93
2018-10-17T11:33:11.232Z,36.90
2018-10-17T11:35:38.391Z,39.47
2018-10-17T11:38:05.723Z,35.43
2018-10-17T11:40:32.991Z,32.40
2018-10-17T11:43:09.852Z,37.43
2018-10-17T11:45:37.226Z,35.30
2018-10-17T11:48:04.665Z,34.53
2018-10-17T11:50:31.975Z,37.63
2018-10-17T11:52:59.489Z,39.03
2018-10-17T11:55:26.687Z,38.67
2018-10-17T11:57:54.059Z,34.00
2018-10-17T12:00:21.336Z,35.00
2018-10-17T12:02:48.563Z,34.60
2018-10-17T12:05:16.278Z,38.23
2018-10-17T12:07:43.795Z,38.87
2018-10-17T12:10:11.067Z,33.20
2018-10-17T12:12:38.297Z,33.33
2018-10-17T12:15:09.685Z,35.60
2018-10-17T12:17:36.937Z,34.00
2018-10-17T12:20:06.008Z,35.23
2018-10-17T12:22:33.355Z,34.07
2018-10-17T12:25:00.597Z,33.33
2018-10-17T12:27:27.842Z,36.63
2018-10-17T12:29:55.324Z,31.00
2018-10-17T12:32:22.567Z,33.57
2018-10-17T12:34:49.783Z,37.40
2018-10-17T12:37:17.116Z,38.70
2018-10-17T12:39:44.379Z,33.13
2018-10-17T12:42:11.619Z,33.13
2018-10-17T12:44:38.950Z,33.03
2018-10-17T12:47:07.441Z,35.23
2018-10-17T12:49:34.654Z,32.23
2018-10-17T12:52:02.189Z,33.43
2018-10-17T12:54:29.391Z,34.53
2018-10-17T12:56:56.606Z,35.77
2018-10-17T12:59:23.900Z,32.93
2018-10-17T13:01:51.099Z,36.40
2018-10-17T13:04:18.511Z,31.80
2018-10-17T13:06:45.871Z,31.37
2018-10-17T13:09:13.128Z,30.20
2018-10-17T13:11:40.560Z,28.23
2018-10-17T13:14:08.277Z,29.03
2018-10-17T13:16:35.527Z,24.07
2018-10-17T13:19:02.818Z,24.03
2018-10-17T13:21:30.194Z,23.67
2018-10-17T13:23:57.703Z,26.60
2018-10-17T13:26:24.962Z,28.17
2018-10-17T13:28:52.345Z,21.87
2018-10-17T13:31:19.634Z,22.57
2018-10-17T13:33:46.847Z,20.63
2018-10-17T13:36:14.190Z,22.07
2018-10-17T13:38:41.407Z,20.63
2018-10-17T13:41:08.674Z,17.80
2018-10-17T13:43:36.294Z,21.83
2018-10-17T13:46:03.540Z,20.10
2018-10-17T13:48:30.751Z,24.80
2018-10-17T13:50:58.052Z,21.00
2018-10-17T13:53:25.326Z,27.40
2018-10-17T13:55:52.533Z,24.83
2018-10-17T13:58:19.959Z,23.83
2018-10-17T14:00:47.164Z,21.43
2018-10-17T14:03:14.371Z,19.50
2018-10-17T14:05:41.697Z,20.33
2018-10-17T14:08:08.923Z,26.50
2018-10-17T14:10:36.147Z,30.40
2018-10-17T14:13:03.621Z,28.90
2018-10-17T14:15:30.848Z,38.97
2018-10-17T14:17:58.173Z,39.97
2018-10-17T14:20:25.875Z,42.87
2018-10-17T14:22:53.103Z,43.70
2018-10-17T14:25:20.624Z,50.67
2018-10-17T14:27:47.982Z,54.93
2018-10-17T14:30:15.315Z,60.23
2018-10-17T14:32:42.468Z,53.97
2018-10-17T14:35:10.862Z,64.13
2018-10-17T14:37:38.107Z,57.97
2018-10-17T14:40:05.422Z,59.70
2018-10-17T14:42:32.750Z,59.30
2018-10-17T14:44:59.989Z,61.83
2018-10-17T14:47:27.215Z,59.20
2018-10-17T14:49:54.559Z,59.30
2018-10-17T14:52:21.852Z,62.77
2018-10-17T14:54:49.078Z,60.73
2018-10-17T14:57:16.566Z,57.50
2018-10-17T14:59:43.836Z,57.57
2018-10-17T15:02:11.095Z,60.87
2018-10-17T15:04:38.540Z,54.87
2018-10-17T15:07:05.890Z,57.57
2018-10-17T15:09:33.248Z,57.80
2018-10-17T15:12:00.645Z,56.73
2018-10-17T15:14:27.858Z,56.40
2018-10-17T15:16:55.161Z,60.70
2018-10-17T15:19:22.372Z,59.77
2018-10-17T15:21:49.616Z,61.90
2018-10-17T15:24:16.938Z,57.03
2018-10-17T15:26:44.232Z,60.43
2018-10-17T15:29:11.489Z,60.83
2018-10-17T15:31:38.769Z,57.83
2018-10-17T15:34:05.988Z,61.53
2018-10-17T15:36:33.229Z,56.73
2018-10-17T15:39:00.470Z,56.67
2018-10-17T15:41:27.823Z,61.13
2018-10-17T15:43:55.071Z,62.87
2018-10-17T15:46:22.325Z,70.30
2018-10-17T15:48:49.740Z,59.60
2018-10-17T15:51:17.067Z,64.20
2018-10-17T15:53:45.997Z,65.40
2018-10-17T15:59:21.347Z,63.37
2018-10-17T16:01:48.732Z,63.93
2018-10-17T16:04:15.968Z,64.13
2018-10-17T16:06:43.201Z,63.47
2018-10-17T16:09:12.411Z,56.77
2018-10-17T16:11:39.769Z,60.60
2018-10-17T16:14:07.076Z,59.77
2018-10-17T16:16:34.419Z,60.03
2018-10-17T16:19:02.336Z,57.70
2018-10-17T16:21:29.580Z,62.40
2018-10-17T16:23:56.993Z,51.63
2018-10-17T16:26:24.556Z,46.47
2018-10-17T16:28:51.804Z,47.47
2018-10-17T16:31:19.151Z,48.40
2018-10-17T16:33:46.388Z,46.50
2018-10-17T16:36:13.739Z,51.97
2018-10-17T16:38:41.028Z,47.87
2018-10-17T16:41:08.442Z,45.47
2018-10-17T16:43:35.647Z,49.27
2018-10-17T16:46:03.312Z,47.57
2018-10-17T16:48:30.556Z,47.43
2018-10-17T16:50:57.947Z,49.17
2018-10-17T16:53:25.258Z,49.50
2018-10-17T16:55:52.572Z,50.80
2018-10-17T16:58:20.052Z,47.93
2018-10-17T17:00:47.349Z,53.67
2018-10-17T17:03:14.682Z,49.23
2018-10-17T17:05:41.851Z,51.90
2018-10-17T17:08:09.247Z,46.30
2018-10-17T17:10:36.482Z,48.50
2018-10-17T17:13:03.976Z,52.73
2018-10-17T17:15:31.334Z,53.53
2018-10-17T17:17:58.636Z,55.37
2018-10-17T17:20:25.913Z,54.10
2018-10-17T17:22:53.369Z,57.03
2018-10-17T17:25:20.507Z,55.70
2018-10-17T17:27:47.776Z,51.73
2018-10-17T17:30:16.550Z,50.53
2018-10-17T17:32:44.321Z,55.80
2018-10-17T17:35:11.611Z,56.93
2018-10-17T17:37:39.141Z,59.97
2018-10-17T17:40:07.320Z,56.47
2018-10-17T17:42:34.660Z,56.50
2018-10-17T17:45:02.126Z,53.47
2018-10-17T17:47:29.378Z,54.10
2018-10-17T17:49:56.648Z,59.47
2018-10-17T17:52:24.096Z,55.93
2018-10-17T17:54:51.295Z,54.40
2018-10-17T17:57:18.572Z,60.23
2018-10-17T17:59:45.947Z,61.43
2018-10-17T18:02:13.227Z,57.23
2018-10-17T18:04:40.478Z,55.90
2018-10-17T18:07:07.928Z,52.07
2018-10-17T18:09:35.184Z,52.23
2018-10-17T18:12:02.543Z,48.50
2018-10-17T18:14:29.932Z,48.50
2018-10-17T18:16:57.188Z,47.40
2018-10-17T18:19:24.495Z,47.50
2018-10-17T18:21:51.888Z,51.30
2018-10-17T18:24:19.121Z,51.17
2018-10-17T18:26:46.371Z,47.77
2018-10-17T18:29:13.751Z,55.60
2018-10-17T18:31:41.029Z,46.93
2018-10-17T18:34:08.426Z,41.90
2018-10-17T18:36:35.739Z,45.57
2018-10-17T18:39:05.249Z,46.47
2018-10-17T18:41:32.492Z,44.83
2018-10-17T18:43:59.888Z,50.03
2018-10-17T18:46:30.840Z,43.83
2018-10-17T18:48:58.360Z,43.63
2018-10-17T18:51:28.134Z,47.47
2018-10-17T18:53:55.527Z,48.53
2018-10-17T18:56:25.557Z,44.57
2018-10-17T18:58:52.981Z,42.30
2018-10-17T19:01:20.256Z,43.67
2018-10-17T19:03:47.517Z,47.00
2018-10-17T19:06:14.880Z,41.33
2018-10-17T19:08:42.092Z,46.93
2018-10-17T19:11:16.263Z,46.27
2018-10-17T19:13:43.508Z,46.90
2018-10-17T19:16:10.915Z,51.43
2018-10-17T19:18:38.232Z,45.77
2018-10-17T19:21:05.530Z,53.77
2018-10-17T19:23:32.751Z,48.60
2018-10-17T19:26:00.129Z,44.90
2018-10-17T19:28:27.352Z,52.17
2018-10-17T19:30:54.614Z,49.50
2018-10-17T19:33:22.018Z,53.23
2018-10-17T19:35:49.327Z,52.20
2018-10-17T19:38:16.580Z,51.13
2018-10-17T19:40:43.959Z,54.57
2018-10-17T19:43:11.221Z,57.57
2018-10-17T19:45:38.447Z,53.73
2018-10-17T19:48:05.881Z,54.73
2018-10-17T19:50:33.155Z,54.60
2018-10-17T19:53:00.482Z,54.17
2018-10-17T19:55:27.850Z,58.43
2018-10-17T19:57:55.118Z,56.03
2018-10-17T20:00:22.400Z,58.93
2018-10-17T20:02:49.828Z,63.73
2018-10-17T20:05:17.064Z,60.63
2018-10-17T20:07:44.400Z,56.83
2018-10-17T20:10:11.688Z,57.83
2018-10-17T20:12:38.934Z,52.23
2018-10-17T20:15:06.405Z,50.73
2018-10-17T20:17:33.730Z,49.97
2018-10-17T20:20:01.059Z,52.97
2018-10-17T20:22:28.322Z,52.87
2018-10-17T20:24:55.721Z,50.77
2018-10-17T20:27:22.965Z,56.20
2018-10-17T20:29:50.232Z,61.57
2018-10-17T20:32:17.528Z,49.27
2018-10-17T20:34:44.788Z,50.80
2018-10-17T20:37:12.039Z,52.93
2018-10-17T20:39:39.415Z,49.10
2018-10-17T20:42:06.722Z,55.53
2018-10-17T20:44:33.972Z,50.37
2018-10-17T20:47:01.352Z,57.60
2018-10-17T20:49:28.575Z,58.60
2018-10-17T20:51:55.828Z,58.90
2018-10-17T20:54:23.287Z,61.67
2018-10-17T20:56:50.519Z,57.50
2018-10-17T20:59:17.784Z,56.23
2018-10-17T21:01:45.251Z,57.10
2018-10-17T21:04:12.459Z,57.17
2018-10-17T21:06:40.149Z,56.30
2018-10-17T21:09:11.011Z,59.50
2018-10-17T21:11:38.328Z,63.50
2018-10-17T21:14:05.863Z,58.77
2018-10-17T21:16:33.287Z,61.93
2018-10-17T21:19:00.519Z,65.77
2018-10-17T21:21:27.998Z,58.93
2018-10-17T21:23:55.250Z,63.60
2018-10-17T21:26:22.507Z,64.23
2018-10-17T21:28:49.754Z,61.43
2018-10-17T21:31:17.087Z,56.10
2018-10-17T21:33:44.341Z,62.97
2018-10-17T21:36:11.615Z,67.93
2018-10-17T21:38:38.967Z,65.47
2018-10-17T21:41:06.209Z,68.40
2018-10-17T21:43:33.438Z,62.93
2018-10-17T21:46:00.783Z,69.80
2018-10-17T21:48:28.034Z,63.67
2018-10-17T21:50:55.291Z,61.20
2018-10-17T21:53:22.639Z,71.70
2018-10-17T21:55:49.859Z,70.80
2018-10-17T21:58:17.076Z,72.90
2018-10-17T22:00:44.368Z,80.70
2018-10-17T22:03:11.710Z,89.70
2018-10-17T22:05:38.919Z,89.27
2018-10-17T22:08:06.308Z,79.43
2018-10-17T22:10:33.531Z,76.13
2018-10-17T22:13:00.875Z,78.60
2018-10-17T22:15:28.203Z,85.93
2018-10-17T22:17:55.447Z,86.47
2018-10-17T22:20:22.732Z,80.00
2018-10-17T22:22:50.120Z,85.50
2018-10-17T22:25:17.372Z,78.03
2018-10-17T22:27:44.624Z,84.80
2018-10-17T22:30:11.970Z,91.23
2018-10-17T22:32:39.199Z,85.23
2018-10-17T22:35:06.471Z,84.30
2018-10-17T22:37:33.756Z,85.40
2018-10-17T22:40:00.995Z,81.67
2018-10-17T22:42:28.246Z,73.13
2018-10-17T22:44:55.595Z,75.73
2018-10-17T22:47:22.843Z,84.13
2018-10-17T22:49:50.087Z,80.83
2018-10-17T22:52:17.370Z,83.80
2018-10-17T22:54:44.635Z,82.50
2018-10-17T22:57:12.930Z,83.90
2018-10-17T22:59:40.279Z,86.57
2018-10-17T23:02:07.563Z,80.23
2018-10-17T23:04:34.773Z,85.57
2018-10-17T23:07:02.039Z,78.73
2018-10-17T23:09:29.365Z,82.33
2018-10-17T23:11:56.599Z,94.67
2018-10-17T23:14:23.951Z,98.60
2018-10-17T23:16:51.203Z,100.37
2018-10-17T23:19:18.444Z,111.03
2018-10-17T23:21:45.771Z,103.40
2018-10-17T23:24:13.044Z,94.33
2018-10-17T23:26:40.336Z,104.97
2018-10-17T23:29:07.662Z,125.73
2018-10-17T23:31:34.905Z,129.77
2018-10-17T23:34:02.142Z,162.10
2018-10-17T23:36:29.538Z,136.80
2018-10-17T23:38:56.764Z,126.10
2018-10-17T23:41:24.012Z,140.23
2018-10-17T23:43:51.275Z,123.20
2018-10-17T23:46:18.545Z,128.77
2018-10-17T23:48:45.811Z,136.93
2018-10-17T23:51:14.270Z,114.37
2018-10-17T23:53:41.494Z,114.63
2018-10-17T23:56:09.149Z,126.73
2018-10-17T23:58:36.742Z,137.50
